Time;durP1;ratioP1;P1;durP2;ratioP2;P2;SDS_P1;SDS_P2;PMS_P1;PMS_P2;Temp;Humidity;BMP_temperature;BMP_pressure;BME280_temperature;BME280_humidity;BME280_pressure;Samples;Min_cycle;Max_cycle;Signal;HPM_P1;HPM_P2
2022/03/02 00:02:10;;;;;;;46.90;19.90;;;;;;;5.24;86.45;102615.03;5075276;28;20549;-57
2022/03/02 00:04:36;;;;;;;50.67;20.15;;;;;;;5.19;85.10;102614.44;5073775;28;20389;-57
2022/03/02 00:07:01;;;;;;;44.63;20.23;;;;;;;5.15;84.12;102605.81;5075186;28;20048;-57
2022/03/02 00:09:26;;;;;;;45.80;20.27;;;;;;;5.12;85.27;102610.41;5072496;28;20043;-57
2022/03/02 00:11:52;;;;;;;45.50;19.38;;;;;;;5.08;84.64;102607.06;5076466;28;20042;-57
2022/03/02 00:14:17;;;;;;;47.90;21.27;;;;;;;5.04;85.47;102613.44;5075251;28;20077;-57
2022/03/02 00:16:42;;;;;;;43.70;19.88;;;;;;;5.01;84.73;102609.19;5075394;28;20028;-57
2022/03/02 00:19:08;;;;;;;43.10;20.48;;;;;;;4.98;85.66;102613.78;5074404;28;20024;-56
2022/03/02 00:21:35;;;;;;;46.15;20.58;;;;;;;4.94;86.26;102617.53;5074610;28;20653;-57
2022/03/02 00:24:03;;;;;;;52.42;20.67;;;;;;;4.89;84.22;102607.19;5072413;28;20032;-57
2022/03/02 00:26:29;;;;;;;43.90;20.17;;;;;;;4.90;85.59;102608.03;5074345;28;20055;-57
2022/03/02 00:28:54;;;;;;;51.58;19.90;;;;;;;4.87;86.24;102606.41;5075733;28;20359;-57
2022/03/02 00:31:19;;;;;;;48.65;20.90;;;;;;;4.89;85.51;102608.97;5074355;28;20260;-57
2022/03/02 00:33:45;;;;;;;43.75;20.38;;;;;;;4.87;84.97;102611.69;5068367;28;20045;-57
2022/03/02 00:36:10;;;;;;;45.88;20.55;;;;;;;4.85;82.97;102602.97;5053501;28;20570;-57
2022/03/02 00:38:35;;;;;;;47.70;20.20;;;;;;;4.84;82.92;102599.47;5052390;28;20340;-57
2022/03/02 00:41:00;;;;;;;47.65;20.42;;;;;;;4.86;84.10;102607.34;5053921;28;20028;-57
2022/03/02 00:43:26;;;;;;;47.92;21.30;;;;;;;4.85;85.72;102597.69;5053775;28;20434;-58
2022/03/02 00:45:51;;;;;;;47.47;20.63;;;;;;;4.86;85.45;102594.97;5055158;28;20055;-57
2022/03/02 00:48:17;;;;;;;42.25;19.63;;;;;;;4.91;84.98;102593.88;5053926;28;20540;-57
2022/03/02 00:50:43;;;;;;;49.10;20.95;;;;;;;4.93;86.47;102594.66;5054307;28;20081;-57
2022/03/02 00:53:08;;;;;;;48.35;20.35;;;;;;;4.95;86.35;102598.06;5053254;28;20154;-58
2022/03/02 00:55:35;;;;;;;43.63;19.25;;;;;;;4.96;85.48;102597.13;5053370;28;20037;-57
2022/03/02 00:58:02;;;;;;;41.58;19.02;;;;;;;4.97;84.35;102593.53;5018951;28;20479;-57
2022/03/02 01:00:27;;;;;;;48.42;19.23;;;;;;;4.98;84.76;102592.63;5053656;28;20097;-57
2022/03/02 01:02:53;;;;;;;43.95;20.17;;;;;;;4.99;85.53;102592.53;5054133;28;20124;-57
2022/03/02 01:05:18;;;;;;;50.38;19.30;;;;;;;4.98;84.88;102588.16;5054107;28;20111;-57
2022/03/02 01:07:44;;;;;;;43.85;19.00;;;;;;;4.98;82.99;102584.66;5053004;28;20289;-57
2022/03/02 01:10:09;;;;;;;44.47;20.52;;;;;;;5.00;83.97;102588.94;5053219;28;20073;-57
2022/03/02 01:12:34;;;;;;;42.63;19.20;;;;;;;4.99;81.89;102584.59;5054119;28;20323;-57
2022/03/02 01:15:00;;;;;;;40.90;18.80;;;;;;;4.99;82.15;102584.59;5054366;28;20031;-57
2022/03/02 01:17:25;;;;;;;45.47;19.45;;;;;;;5.00;82.70;102583.63;5054024;28;20043;-57
2022/03/02 01:19:51;;;;;;;41.50;19.65;;;;;;;5.01;83.97;102587.16;5053802;28;20028;-57
2022/03/02 01:22:16;;;;;;;45.17;19.85;;;;;;;5.00;82.73;102577.50;5053656;28;20053;-57
2022/03/02 01:24:43;;;;;;;45.53;19.55;;;;;;;5.02;82.04;102572.97;5052118;28;20037;-57
2022/03/02 01:27:08;;;;;;;41.47;19.73;;;;;;;5.00;81.38;102569.53;5053661;28;20169;-57
2022/03/02 01:29:36;;;;;;;44.03;19.45;;;;;;;4.98;81.49;102572.28;5053346;28;20453;-57
2022/03/02 01:32:08;;;;;;;41.60;18.88;;;;;;;5.00;83.34;102572.19;5053134;28;20024;-57
2022/03/02 01:34:34;;;;;;;40.95;18.85;;;;;;;5.00;83.54;102564.25;5033266;28;20049;-57
2022/03/02 01:37:00;;;;;;;45.40;19.00;;;;;;;4.99;82.62;102565.19;5053607;28;20658;-57
2022/03/02 01:39:25;;;;;;;40.95;18.60;;;;;;;4.98;84.08;102556.38;5051488;28;20066;-57
2022/03/02 01:41:51;;;;;;;40.53;19.15;;;;;;;4.98;81.04;102556.38;5052820;28;20134;-57
2022/03/02 01:44:17;;;;;;;43.60;18.38;;;;;;;4.98;80.86;102561.69;5052451;28;20117;-57
2022/03/02 01:46:43;;;;;;;41.10;18.60;;;;;;;4.98;81.90;102552.91;5055285;28;20020;-57
2022/03/02 01:49:08;;;;;;;45.70;19.08;;;;;;;4.96;81.43;102550.31;5059914;28;20108;-56
2022/03/02 01:51:33;;;;;;;40.63;17.88;;;;;;;4.96;79.25;102554.78;5060617;28;20052;-56
2022/03/02 01:53:59;;;;;;;42.00;18.10;;;;;;;4.96;80.16;102552.97;5058988;28;20359;-57
2022/03/02 01:56:24;;;;;;;41.13;17.85;;;;;;;4.96;79.49;102557.44;5060494;28;20087;-57
2022/03/02 01:58:50;;;;;;;41.15;18.90;;;;;;;4.96;80.71;102552.13;5060689;28;20463;-56
2022/03/02 02:01:15;;;;;;;35.50;16.98;;;;;;;4.96;80.33;102546.84;5060261;28;20044;-57
2022/03/02 02:03:41;;;;;;;40.53;17.63;;;;;;;4.95;80.84;102540.66;5058304;28;20136;-58
2022/03/02 02:06:08;;;;;;;36.25;17.85;;;;;;;4.95;81.08;102540.66;5060246;28;20514;-57
2022/03/02 02:08:33;;;;;;;42.15;17.92;;;;;;;4.94;78.73;102533.69;5058303;28;20494;-57
2022/03/02 02:10:59;;;;;;;42.33;17.83;;;;;;;4.94;79.91;102540.75;5060517;28;20055;-57
2022/03/02 02:13:27;;;;;;;41.45;17.75;;;;;;;4.93;79.21;102537.25;5059743;28;20711;-57
2022/03/02 02:15:55;;;;;;;38.33;17.00;;;;;;;4.93;77.12;102528.47;5061322;28;20036;-57
2022/03/02 02:18:20;;;;;;;42.20;18.17;;;;;;;4.94;81.68;102523.09;5058855;28;20534;-57
2022/03/02 02:20:46;;;;;;;40.53;18.08;;;;;;;4.93;80.09;102524.00;5060163;28;20446;-57
2022/03/02 02:23:12;;;;;;;44.50;17.77;;;;;;;4.93;78.37;102531.94;5058152;28;20024;-57
2022/03/02 02:25:38;;;;;;;37.90;17.85;;;;;;;4.91;79.16;102528.53;5060636;28;20441;-57
2022/03/02 02:28:03;;;;;;;40.45;17.35;;;;;;;4.89;77.51;102517.19;5060256;28;20524;-57
2022/03/02 02:30:30;;;;;;;41.15;17.98;;;;;;;4.88;79.37;102517.25;5059665;28;20028;-57
2022/03/02 02:32:56;;;;;;;39.58;17.65;;;;;;;4.88;79.80;102519.91;5060751;28;20032;-57
2022/03/02 02:35:21;;;;;;;40.95;18.02;;;;;;;4.86;79.28;102526.13;5059683;28;20036;-57
2022/03/02 02:37:47;;;;;;;41.25;18.60;;;;;;;4.82;78.64;102505.19;5058417;28;20028;-57
2022/03/02 02:40:15;;;;;;;37.33;17.65;;;;;;;4.82;78.88;102513.13;5058647;28;20116;-57
2022/03/02 02:42:44;;;;;;;45.97;18.67;;;;;;;4.80;78.26;102518.53;5060575;28;20451;-57
2022/03/02 02:45:14;;;;;;;42.58;18.10;;;;;;;4.79;80.45;102508.03;5058856;28;20047;-57
2022/03/02 02:47:40;;;;;;;39.45;17.23;;;;;;;4.74;77.77;102510.06;5059810;28;20025;-57
2022/03/02 02:50:22;;;;;;;37.53;17.13;;;;;;;4.75;79.09;102512.63;5059189;28;20055;-57
2022/03/02 02:52:48;;;;;;;39.60;17.35;;;;;;;4.72;77.72;102507.50;5057898;28;20032;-57
2022/03/02 02:55:15;;;;;;;39.35;17.88;;;;;;;4.69;76.88;102510.31;5057784;28;20279;-57
2022/03/02 02:57:41;;;;;;;39.97;17.05;;;;;;;4.68;78.76;102516.53;5030183;28;20032;-57
2022/03/02 03:00:10;;;;;;;35.45;17.02;;;;;;;4.63;77.16;102507.97;5039009;28;20403;-58
2022/03/02 03:02:37;;;;;;;38.67;17.10;;;;;;;4.59;77.58;102499.34;5046880;28;20044;-57
2022/03/02 03:05:02;;;;;;;38.08;17.38;;;;;;;4.56;77.87;102509.25;5056105;28;20036;-57
2022/03/02 03:07:27;;;;;;;41.80;16.77;;;;;;;4.53;77.58;102498.81;5046400;28;20040;-57
2022/03/02 03:09:53;;;;;;;39.50;17.30;;;;;;;4.50;80.31;102499.84;5055960;28;20032;-57
2022/03/02 03:12:18;;;;;;;40.17;17.35;;;;;;;4.45;77.92;102494.78;5055451;28;20928;-57
2022/03/02 03:14:43;;;;;;;36.28;17.08;;;;;;;4.43;80.96;102494.03;5056979;28;20032;-57
2022/03/02 03:17:09;;;;;;;43.95;17.05;;;;;;;4.37;79.55;102502.25;5055750;28;20016;-57
2022/03/02 03:19:34;;;;;;;39.45;17.33;;;;;;;4.36;79.38;102499.69;5056006;28;20372;-56
2022/03/02 03:22:07;;;;;;;37.30;16.90;;;;;;;4.30;80.78;102491.16;5056836;28;20555;-56
2022/03/02 03:24:33;;;;;;;39.33;16.80;;;;;;;4.28;80.12;102492.19;5054499;28;20025;-56
2022/03/02 03:26:59;;;;;;;40.53;16.65;;;;;;;4.25;80.62;102493.16;5055340;28;20020;-56
2022/03/02 03:29:25;;;;;;;39.53;17.55;;;;;;;4.21;80.42;102496.94;5056508;28;20385;-56
2022/03/02 03:31:50;;;;;;;39.00;17.67;;;;;;;4.14;79.19;102498.19;5055281;28;20038;-56
2022/03/02 03:34:15;;;;;;;38.67;16.50;;;;;;;4.10;78.81;102502.75;5055263;28;20048;-56
2022/03/02 03:36:41;;;;;;;38.78;16.48;;;;;;;4.05;79.97;102502.13;5056378;28;20383;-56
2022/03/02 03:39:07;;;;;;;38.15;17.25;;;;;;;4.04;81.82;102500.44;5053333;28;20275;-56
2022/03/02 03:41:32;;;;;;;36.92;17.83;;;;;;;4.02;82.59;102496.13;5055570;28;20031;-57
2022/03/02 03:43:57;;;;;;;36.90;17.27;;;;;;;3.98;82.11;102492.78;5056178;28;20053;-56
2022/03/02 03:46:23;;;;;;;37.72;16.80;;;;;;;3.97;83.22;102499.03;5055441;28;20020;-56
2022/03/02 03:48:49;;;;;;;39.88;18.02;;;;;;;3.93;83.64;102498.31;5045816;28;20123;-56
2022/03/02 03:51:15;;;;;;;38.33;17.23;;;;;;;3.90;82.75;102501.13;5055725;28;20028;-56
2022/03/02 03:53:40;;;;;;;39.55;17.35;;;;;;;3.89;83.86;102493.28;5054238;28;20398;-56
2022/03/02 03:56:05;;;;;;;39.15;17.30;;;;;;;3.84;84.31;102490.84;5055567;28;20504;-56
2022/03/02 03:58:31;;;;;;;43.53;17.67;;;;;;;3.82;82.62;102490.06;5049484;28;20040;-56
2022/03/02 04:00:57;;;;;;;37.65;17.15;;;;;;;3.73;82.19;102486.13;5056238;28;20531;-57
2022/03/02 04:03:22;;;;;;;36.70;16.77;;;;;;;3.77;82.81;102492.09;5054901;28;20043;-56
2022/03/02 04:05:47;;;;;;;38.55;17.40;;;;;;;3.76;82.87;102490.38;5055952;28;20032;-56
2022/03/02 04:08:13;;;;;;;40.08;17.30;;;;;;;3.70;82.51;102478.34;5039561;28;20033;-56
2022/03/02 04:10:39;;;;;;;37.75;17.25;;;;;;;3.73;84.43;102480.81;5054980;28;20021;-56
2022/03/02 04:13:04;;;;;;;38.25;17.42;;;;;;;3.71;84.51;102468.59;5037464;28;20032;-57
2022/03/02 04:15:29;;;;;;;40.58;16.48;;;;;;;3.68;84.20;102474.91;5054892;28;20090;-56
2022/03/02 04:17:54;;;;;;;35.83;17.50;;;;;;;3.69;84.39;102473.97;5036961;28;20101;-56
2022/03/02 04:20:20;;;;;;;40.35;17.17;;;;;;;3.66;83.65;102462.69;5054188;28;20562;-57
2022/03/02 04:22:45;;;;;;;38.20;17.00;;;;;;;3.67;84.40;102470.56;5053450;28;20025;-56
2022/03/02 04:25:11;;;;;;;38.72;17.50;;;;;;;3.65;83.70;102467.13;5054707;28;20036;-57
2022/03/02 04:27:36;;;;;;;40.95;17.23;;;;;;;3.65;85.29;102464.50;5043059;28;21237;-56
2022/03/02 04:30:04;;;;;;;37.95;16.88;;;;;;;3.64;85.44;102460.13;5041773;28;20587;-56
2022/03/02 04:32:30;;;;;;;39.55;16.58;;;;;;;3.62;84.29;102459.34;5053018;28;20032;-56
2022/03/02 04:34:55;;;;;;;38.42;16.92;;;;;;;3.62;85.22;102461.16;5055089;28;20072;-56
2022/03/02 04:37:20;;;;;;;40.30;17.67;;;;;;;3.60;85.79;102452.41;5044415;28;20044;-56
2022/03/02 04:39:46;;;;;;;37.47;16.95;;;;;;;3.59;85.78;102454.22;5038019;28;20404;-57
2022/03/02 04:42:11;;;;;;;39.67;16.55;;;;;;;3.57;85.88;102448.16;5053938;28;20044;-56
2022/03/02 04:44:36;;;;;;;38.13;16.98;;;;;;;3.56;85.19;102451.72;5053433;28;20547;-56
2022/03/02 04:47:02;;;;;;;39.50;16.70;;;;;;;3.55;84.40;102450.88;5054621;28;20321;-56
2022/03/02 04:49:28;;;;;;;37.85;16.42;;;;;;;3.55;85.49;102437.66;5053464;28;20375;-57
2022/03/02 04:51:53;;;;;;;38.97;16.02;;;;;;;3.54;83.20;102440.38;5055515;28;20035;-56
2022/03/02 04:57:05;;;;;;;40.88;17.13;;;;;;;3.52;83.02;102440.47;5038776;28;20435;-56
2022/03/02 04:59:30;;;;;;;34.42;15.77;;;;;;;3.53;82.55;102446.59;5026102;28;20028;-56
2022/03/02 05:01:56;;;;;;;37.17;16.80;;;;;;;3.51;83.95;102432.59;5054892;28;20032;-56
2022/03/02 05:04:21;;;;;;;37.85;16.60;;;;;;;3.49;83.26;102440.59;5048659;28;20116;-56
2022/03/02 05:06:46;;;;;;;36.42;15.77;;;;;;;3.50;82.32;102430.91;5046485;28;20032;-56
2022/03/02 05:09:12;;;;;;;38.70;15.85;;;;;;;3.48;83.52;102436.28;5052297;28;20129;-56
2022/03/02 05:11:37;;;;;;;37.05;16.13;;;;;;;3.47;82.12;102438.97;5054632;28;20032;-56
2022/03/02 05:14:02;;;;;;;40.85;16.65;;;;;;;3.43;82.31;102443.56;5051803;28;20093;-56
2022/03/02 05:16:28;;;;;;;39.95;16.38;;;;;;;3.42;81.93;102441.84;5053826;28;20463;-56
2022/03/02 05:18:53;;;;;;;35.50;15.63;;;;;;;3.40;80.30;102430.50;5052838;28;20032;-56
2022/03/02 05:21:18;;;;;;;37.35;16.42;;;;;;;3.38;82.77;102437.66;5053180;28;20056;-56
2022/03/02 05:23:44;;;;;;;38.28;15.43;;;;;;;3.36;82.63;102437.72;5051621;28;20043;-57
2022/03/02 05:26:09;;;;;;;31.75;15.38;;;;;;;3.28;81.01;102421.41;5054144;28;20069;-56
2022/03/02 05:28:36;;;;;;;34.25;15.23;;;;;;;3.31;83.65;102429.16;5054163;28;20141;-56
2022/03/02 05:31:02;;;;;;;38.10;16.23;;;;;;;3.28;82.22;102431.13;5054429;28;20104;-56
2022/03/02 05:33:27;;;;;;;40.03;16.10;;;;;;;3.24;82.21;102430.41;5052209;28;20173;-56
2022/03/02 05:35:52;;;;;;;35.70;16.02;;;;;;;3.24;82.36;102427.75;5054926;28;20379;-57
2022/03/02 05:38:17;;;;;;;32.58;14.52;;;;;;;3.21;82.34;102427.03;5050341;28;20055;-56
2022/03/02 05:40:43;;;;;;;34.33;16.30;;;;;;;3.18;82.59;102426.25;5053740;28;20029;-56
2022/03/02 05:43:08;;;;;;;36.88;16.45;;;;;;;3.17;81.79;102424.56;5052251;28;20334;-57
2022/03/02 05:45:34;;;;;;;36.95;15.75;;;;;;;3.17;82.85;102423.69;5053398;28;20020;-56
2022/03/02 05:47:59;;;;;;;37.10;15.48;;;;;;;3.15;84.23;102421.13;5052772;28;20025;-56
2022/03/02 05:50:24;;;;;;;38.13;16.27;;;;;;;3.15;83.45;102420.28;5054211;28;20589;-57
2022/03/02 05:52:50;;;;;;;36.63;16.30;;;;;;;3.12;82.16;102418.66;5051878;28;21891;-56
2022/03/02 05:55:15;;;;;;;34.90;15.48;;;;;;;3.13;83.93;102430.91;5034785;28;20104;-56
2022/03/02 05:57:40;;;;;;;36.15;15.75;;;;;;;3.11;82.65;102429.28;5053489;28;20048;-56
2022/03/02 06:00:06;;;;;;;34.00;14.82;;;;;;;3.11;83.01;102422.22;5041501;28;20036;-56
2022/03/02 06:02:32;;;;;;;36.83;16.27;;;;;;;3.11;84.12;102421.38;5034399;28;20110;-57
2022/03/02 06:04:57;;;;;;;36.95;15.43;;;;;;;3.05;81.85;102421.66;5050073;28;20671;-56
2022/03/02 06:07:23;;;;;;;41.97;16.23;;;;;;;3.08;83.59;102429.41;5052957;28;20065;-56
2022/03/02 06:09:49;;;;;;;36.22;16.23;;;;;;;3.04;83.53;102434.00;5052714;28;20427;-56
2022/03/02 06:12:15;;;;;;;34.55;15.63;;;;;;;3.04;82.94;102428.72;5052410;28;20024;-56
2022/03/02 06:14:41;;;;;;;35.58;15.98;;;;;;;3.06;85.70;102431.28;5053340;28;20376;-57
2022/03/02 06:17:08;;;;;;;37.92;16.40;;;;;;;3.04;84.91;102433.13;5052939;28;20131;-56
2022/03/02 06:19:34;;;;;;;33.67;16.45;;;;;;;3.03;86.06;102434.06;5052139;28;20024;-54
2022/03/02 06:22:02;;;;;;;36.63;16.08;;;;;;;3.01;84.75;102435.94;5053535;28;20078;-56
2022/03/02 06:24:28;;;;;;;34.10;15.60;;;;;;;2.98;83.48;102424.56;5049930;28;20317;-56
2022/03/02 06:26:53;;;;;;;37.72;15.60;;;;;;;2.97;84.76;102433.44;5034856;28;20035;-56
2022/03/02 06:29:18;;;;;;;40.83;16.08;;;;;;;2.95;85.81;102437.06;5042412;28;20036;-57
2022/03/02 06:31:44;;;;;;;36.70;15.13;;;;;;;2.93;84.08;102438.91;5046788;28;20508;-56
2022/03/02 06:34:09;;;;;;;35.45;15.60;;;;;;;2.89;84.34;102437.34;5045098;28;20051;-56
2022/03/02 06:36:35;;;;;;;41.00;16.23;;;;;;;2.89;85.94;102434.72;5040703;28;20363;-56
2022/03/02 06:39:00;;;;;;;43.00;16.02;;;;;;;2.86;83.95;102430.44;5036094;28;20094;-56
2022/03/02 06:41:32;;;;;;;37.67;15.60;;;;;;;2.88;86.01;102439.13;5041629;28;20033;-56
2022/03/02 06:44:04;;;;;;;39.67;16.42;;;;;;;2.88;85.21;102440.91;5056497;28;20341;-56
2022/03/02 06:46:30;;;;;;;32.88;15.35;;;;;;;2.88;85.67;102439.13;5034698;28;20112;-56
2022/03/02 06:49:03;;;;;;;36.70;15.57;;;;;;;2.90;85.79;102444.34;5036658;28;20447;-56
2022/03/02 06:51:30;;;;;;;38.55;15.60;;;;;;;2.86;83.50;102448.91;5053809;28;20232;-56
2022/03/02 06:53:57;;;;;;;37.70;15.40;;;;;;;2.89;83.77;102451.41;5046789;28;20021;-56
2022/03/02 06:56:27;;;;;;;39.83;16.17;;;;;;;2.91;82.96;102448.69;5051351;28;20120;-56
2022/03/02 06:58:54;;;;;;;38.53;15.40;;;;;;;2.93;81.29;102444.19;5048559;28;20120;-57
2022/03/02 07:01:31;;;;;;;36.90;15.52;;;;;;;2.96;82.71;102452.81;5042606;28;20103;-56
2022/03/02 07:03:59;;;;;;;34.90;14.45;;;;;;;3.00;83.59;102453.53;5039424;28;20032;-57
2022/03/02 07:06:26;;;;;;;38.78;15.57;;;;;;;3.05;84.14;102456.81;5024012;28;20159;-56
2022/03/02 07:08:52;;;;;;;38.60;15.00;;;;;;;3.06;82.41;102458.53;5046077;28;20645;-56
2022/03/02 07:11:18;;;;;;;34.53;15.52;;;;;;;3.04;80.55;102449.84;5055018;28;20108;-56
2022/03/02 07:13:48;;;;;;;40.08;15.45;;;;;;;3.13;81.82;102453.81;5055946;28;20598;-56
2022/03/02 07:16:16;;;;;;;35.13;15.13;;;;;;;3.16;82.62;102449.25;5053593;28;20035;-56
2022/03/02 07:18:41;;;;;;;37.45;16.00;;;;;;;3.19;80.40;102450.88;5047390;28;20383;-56
2022/03/02 07:21:10;;;;;;;38.15;16.02;;;;;;;3.26;82.78;102457.59;5056557;28;20032;-56
2022/03/02 07:23:41;;;;;;;40.03;16.20;;;;;;;3.29;81.68;102457.44;5053141;28;20025;-57
2022/03/02 07:26:08;;;;;;;39.80;14.98;;;;;;;3.32;80.60;102448.50;5055577;28;20097;-56
2022/03/02 07:28:38;;;;;;;38.85;15.98;;;;;;;3.37;79.12;102457.06;5050038;28;20036;-56
2022/03/02 07:31:06;;;;;;;35.13;15.35;;;;;;;3.41;79.42;102460.41;5052106;28;20128;-57
2022/03/02 07:33:33;;;;;;;37.95;16.15;;;;;;;3.45;77.77;102451.41;5055019;28;20044;-57
2022/03/02 07:35:59;;;;;;;35.22;15.95;;;;;;;3.48;77.29;102452.13;5055845;28;20101;-56
2022/03/02 07:38:25;;;;;;;38.70;15.43;;;;;;;3.55;79.12;102456.16;5046164;28;20067;-56
2022/03/02 07:40:52;;;;;;;37.08;15.82;;;;;;;3.62;77.13;102459.34;5048631;28;20020;-56
2022/03/02 07:43:19;;;;;;;37.55;15.82;;;;;;;3.67;79.10;102454.69;5055280;28;20060;-56
2022/03/02 07:45:44;;;;;;;36.30;16.08;;;;;;;3.75;77.41;102451.66;5055721;28;20048;-57
2022/03/02 07:48:10;;;;;;;36.15;15.45;;;;;;;3.82;77.75;102457.50;5055020;28;20144;-57
2022/03/02 07:50:36;;;;;;;35.95;15.10;;;;;;;3.85;77.10;102452.06;5056554;28;20075;-56
2022/03/02 07:53:02;;;;;;;36.75;16.30;;;;;;;3.90;75.86;102442.97;5053517;28;20028;-56
2022/03/02 07:55:28;;;;;;;34.13;15.60;;;;;;;3.98;76.41;102444.38;5054650;28;20565;-56
2022/03/02 07:57:55;;;;;;;34.33;15.48;;;;;;;4.05;75.99;102449.25;5056518;28;20020;-56
2022/03/02 08:00:21;;;;;;;38.38;15.18;;;;;;;4.14;75.81;102447.94;5055360;28;20152;-57
2022/03/02 08:02:50;;;;;;;40.40;15.63;;;;;;;4.24;74.40;102449.16;5055620;28;20028;-56
2022/03/02 08:05:16;;;;;;;38.10;16.13;;;;;;;4.36;75.00;102449.44;5054514;28;20040;-56
2022/03/02 08:07:42;;;;;;;45.38;16.52;;;;;;;4.47;75.55;102447.09;5053670;28;20028;-57
2022/03/02 08:10:08;;;;;;;38.63;16.30;;;;;;;4.58;73.76;102454.44;5055793;28;20035;-56
2022/03/02 08:12:33;;;;;;;34.95;15.30;;;;;;;4.66;73.94;102447.78;5054701;28;20047;-55
2022/03/02 08:14:59;;;;;;;41.25;15.70;;;;;;;4.76;72.53;102445.50;5056104;28;20034;-56
2022/03/02 08:17:25;;;;;;;37.63;15.32;;;;;;;4.86;71.29;102443.22;5054196;28;20596;-56
2022/03/02 08:19:50;;;;;;;34.63;15.50;;;;;;;4.96;71.20;102440.94;5054737;28;20024;-57
2022/03/02 08:22:18;;;;;;;37.17;15.73;;;;;;;5.07;69.94;102446.47;5053105;28;20621;-56
2022/03/02 08:24:54;;;;;;;38.33;16.50;;;;;;;5.16;69.49;102437.13;5055545;28;20133;-57
2022/03/02 08:27:19;;;;;;;34.42;15.68;;;;;;;5.27;68.20;102434.75;5053354;28;20067;-56
2022/03/02 08:29:52;;;;;;;40.35;15.68;;;;;;;5.35;68.72;102432.53;5055592;28;20689;-56
2022/03/02 08:32:19;;;;;;;33.45;14.98;;;;;;;5.41;68.18;102441.91;5054931;28;20032;-56
2022/03/02 08:34:46;;;;;;;37.92;15.43;;;;;;;5.46;66.13;102431.88;5069958;28;20056;-56
2022/03/02 08:37:11;;;;;;;31.50;15.00;;;;;;;5.53;67.10;102421.78;5072268;28;20032;-56
2022/03/02 08:39:37;;;;;;;33.97;15.43;;;;;;;5.60;67.81;102433.72;5074752;28;20231;-57
2022/03/02 08:42:02;;;;;;;32.53;16.13;;;;;;;5.68;68.24;102431.50;5075175;28;20555;-56
2022/03/02 08:44:27;;;;;;;28.48;14.57;;;;;;;5.73;64.64;102433.88;5071577;28;20036;-57
2022/03/02 08:46:53;;;;;;;32.03;15.05;;;;;;;5.79;66.57;102430.88;5075486;28;20024;-56
2022/03/02 08:49:20;;;;;;;37.25;15.45;;;;;;;5.87;64.46;102435.72;5062672;28;20391;-56
2022/03/02 08:51:49;;;;;;;31.90;14.20;;;;;;;5.95;65.05;102430.81;5073058;28;20138;-56
2022/03/02 08:54:17;;;;;;;29.58;14.77;;;;;;;6.05;65.28;102431.16;5073261;28;20442;-56
2022/03/02 08:56:42;;;;;;;32.10;14.15;;;;;;;6.07;63.27;102424.78;5074101;28;20093;-56
2022/03/02 08:59:13;;;;;;;30.58;14.73;;;;;;;6.18;62.55;102423.28;5073500;28;20036;-57
2022/03/02 09:01:50;;;;;;;33.10;14.88;;;;;;;6.29;62.75;102431.47;5074948;28;20955;-56
2022/03/02 09:04:17;;;;;;;33.80;15.32;;;;;;;6.39;61.54;102427.28;5074448;28;20055;-56
2022/03/02 09:06:43;;;;;;;33.00;15.27;;;;;;;6.50;62.79;102423.97;5074638;28;20028;-56
2022/03/02 09:09:08;;;;;;;34.25;14.93;;;;;;;6.58;61.28;102420.84;5072385;28;20546;-56
2022/03/02 09:11:34;;;;;;;34.00;14.30;;;;;;;6.66;59.61;102422.06;5074320;28;20103;-57
2022/03/02 09:14:01;;;;;;;31.88;14.27;;;;;;;6.71;59.04;102417.31;5074896;28;20442;-56
2022/03/02 09:16:26;;;;;;;32.17;14.75;;;;;;;6.76;56.56;102421.50;5074373;28;20056;-56
2022/03/02 09:18:51;;;;;;;25.85;13.88;;;;;;;6.80;59.41;102418.53;5074710;28;20587;-56
2022/03/02 09:21:19;;;;;;;29.13;14.27;;;;;;;6.91;58.75;102412.53;5074757;28;20481;-56
2022/03/02 09:23:45;;;;;;;29.05;13.93;;;;;;;7.01;57.43;102413.66;5072403;28;20048;-55
2022/03/02 09:26:14;;;;;;;33.22;15.00;;;;;;;7.10;56.64;102410.38;5074213;28;20366;-57
2022/03/02 09:28:42;;;;;;;34.20;14.52;;;;;;;7.19;58.72;102411.59;5047766;28;20059;-56
2022/03/02 09:31:09;;;;;;;32.50;14.25;;;;;;;7.27;58.67;102403.13;5075090;28;20464;-56
2022/03/02 09:33:36;;;;;;;29.95;14.43;;;;;;;7.42;58.37;102410.09;5069153;28;20494;-57
2022/03/02 09:36:06;;;;;;;32.75;15.40;;;;;;;7.54;58.74;102408.41;5055041;28;20121;-56
2022/03/02 09:38:33;;;;;;;37.35;14.30;;;;;;;7.59;56.53;102408.13;5052042;28;20787;-56
2022/03/02 09:41:05;;;;;;;34.17;14.98;;;;;;;7.70;55.47;102399.41;5054925;28;20029;-56
2022/03/02 09:43:33;;;;;;;28.73;14.25;;;;;;;7.79;53.50;102396.97;5052837;28;20027;-56
2022/03/02 09:46:03;;;;;;;33.38;15.13;;;;;;;7.94;53.54;102394.22;5050195;28;20060;-56
2022/03/02 09:48:34;;;;;;;36.67;14.68;;;;;;;8.07;53.82;102396.88;5053085;28;20028;-56
2022/03/02 09:51:04;;;;;;;28.67;14.30;;;;;;;8.16;53.97;102398.91;5055307;28;20485;-57
2022/03/02 09:53:31;;;;;;;29.02;14.15;;;;;;;8.28;53.03;102384.75;5051239;28;20051;-56
2022/03/02 09:56:01;;;;;;;27.75;14.10;;;;;;;8.40;50.82;102391.84;5053950;28;20017;-56
2022/03/02 09:58:27;;;;;;;31.33;14.60;;;;;;;8.53;50.04;102391.84;5054102;28;20563;-56
2022/03/02 10:00:55;;;;;;;32.92;14.93;;;;;;;8.60;48.84;102392.28;5054699;28;20099;-56
2022/03/02 10:03:25;;;;;;;27.63;14.95;;;;;;;8.69;53.18;102393.41;5052059;28;20428;-56
2022/03/02 10:05:52;;;;;;;32.17;15.00;;;;;;;8.77;51.70;102397.25;5053729;28;20032;-56
2022/03/02 10:08:21;;;;;;;34.00;13.88;;;;;;;8.89;47.89;102395.50;5053622;28;20390;-56
2022/03/02 10:10:48;;;;;;;28.88;14.15;;;;;;;8.99;49.83;102390.34;5055998;28;20040;-56
2022/03/02 10:13:16;;;;;;;30.17;14.00;;;;;;;9.01;48.57;102391.06;5056586;28;20115;-56
2022/03/02 10:15:42;;;;;;;30.90;14.02;;;;;;;9.09;50.12;102390.53;5051245;28;20129;-56
2022/03/02 10:18:11;;;;;;;29.02;13.90;;;;;;;9.17;47.49;102390.81;5050069;28;20032;-56
2022/03/02 10:20:39;;;;;;;29.90;14.05;;;;;;;9.24;45.81;102393.88;5058237;28;20490;-57
2022/03/02 10:23:33;;;;;;;28.33;13.88;;;;;;;9.29;46.59;102391.72;5055740;28;20028;-56
2022/03/02 10:26:06;;;;;;;29.50;14.30;;;;;;;9.34;46.31;102390.38;5054095;28;20071;-56
2022/03/02 10:28:56;;;;;;;31.50;14.73;;;;;;;9.45;48.27;102389.59;5056732;28;20024;-56
2022/03/02 10:31:29;;;;;;;29.20;14.20;;;;;;;9.56;45.99;102391.44;5056558;28;20090;-57
2022/03/02 10:34:06;;;;;;;30.13;14.48;;;;;;;9.69;44.90;102381.53;5057269;28;20154;-58
2022/03/02 10:36:39;;;;;;;33.40;15.50;;;;;;;9.74;42.73;102378.50;5056067;28;20024;-57
2022/03/02 10:39:06;;;;;;;30.67;14.88;;;;;;;9.93;43.09;102380.63;5020732;28;20016;-56
2022/03/02 10:41:37;;;;;;;35.45;14.90;;;;;;;10.03;44.22;102376.28;5056328;28;20049;-56
2022/03/02 10:44:04;;;;;;;31.83;15.23;;;;;;;10.13;43.83;102380.88;5057255;28;20367;-56
2022/03/02 10:46:30;;;;;;;29.02;13.48;;;;;;;10.20;41.72;102374.06;5056181;28;20032;-57
2022/03/02 10:49:06;;;;;;;28.65;13.70;;;;;;;10.33;42.77;102377.50;5055716;28;20047;-56
2022/03/02 10:51:35;;;;;;;28.45;13.57;;;;;;;10.41;41.21;102380.44;5046744;28;20131;-56
2022/03/02 10:54:03;;;;;;;24.65;12.55;;;;;;;10.49;42.70;102385.16;5046098;28;20028;-56
2022/03/02 10:56:34;;;;;;;26.30;13.73;;;;;;;10.53;41.30;102375.09;5047939;28;20048;-55
2022/03/02 10:59:02;;;;;;;31.88;13.20;;;;;;;10.55;40.80;102370.47;5045446;28;20501;-56
2022/03/02 11:01:27;;;;;;;28.00;14.18;;;;;;;10.65;41.11;102368.75;5037803;28;20040;-56
2022/03/02 11:03:54;;;;;;;25.48;13.20;;;;;;;10.76;42.13;102374.09;5050737;28;20098;-56
2022/03/02 11:06:21;;;;;;;26.33;14.02;;;;;;;10.89;42.87;102371.25;5056011;28;20056;-56
2022/03/02 11:08:48;;;;;;;31.50;15.15;;;;;;;10.94;42.63;102362.84;5033155;28;20047;-56
2022/03/02 11:11:14;;;;;;;31.85;15.65;;;;;;;10.97;41.33;102360.78;5047667;28;20542;-56
2022/03/02 11:13:40;;;;;;;28.15;14.07;;;;;;;11.04;40.60;102363.78;5057476;28;20039;-57
2022/03/02 11:16:06;;;;;;;25.65;13.38;;;;;;;11.08;40.41;102359.03;5052068;28;20036;-56
2022/03/02 11:18:41;;;;;;;28.80;13.30;;;;;;;11.23;42.27;102362.25;5053019;28;20043;-56